TimeEDT,TemperatureF,Dew PointF,Humidity,Sea Level PressureIn,VisibilityMPH,Wind Direction,Wind SpeedMPH,Gust SpeedMPH,PrecipitationIn,Events,Conditions,WindDirDegrees,DateUTC
12:16 AM,69.8,66.2,88,29.57,10.0,WSW,6.9,-,N/A,,Overcast,240,2011-10-14 04:16:00
12:24 AM,69.8,64.4,83,29.56,10.0,SW,4.6,-,N/A,,Mostly Cloudy,230,2011-10-14 04:24:00
12:51 AM,68.0,64.4,88,29.56,10.0,Calm,Calm,-,N/A,,Mostly Cloudy,0,2011-10-14 04:51:00
12:54 AM,68.0,64.9,90,29.56,10.0,Calm,Calm,-,N/A,,Mostly Cloudy,0,2011-10-14 04:54:00
1:34 AM,69.8,66.2,88,29.56,10.0,SE,4.6,-,N/A,,Mostly Cloudy,140,2011-10-14 05:34:00
1:54 AM,69.1,66.9,93,29.55,10.0,SSE,4.6,-,N/A,,Mostly Cloudy,160,2011-10-14 05:54:00
2:26 AM,69.8,66.2,88,29.55,10.0,South,4.6,-,N/A,,Mostly Cloudy,180,2011-10-14 06:26:00
2:38 AM,69.8,66.2,88,29.55,10.0,South,4.6,-,N/A,,Mostly Cloudy,170,2011-10-14 06:38:00
2:54 AM,69.1,66.0,90,29.54,10.0,South,4.6,-,N/A,,Scattered Clouds,180,2011-10-14 06:54:00
3:04 AM,68.0,66.2,94,29.54,10.0,South,4.6,-,N/A,,Scattered Clouds,180,2011-10-14 07:04:00
3:54 AM,66.9,64.9,93,29.53,10.0,South,3.5,-,N/A,,Scattered Clouds,170,2011-10-14 07:54:00
4:54 AM,66.9,64.9,93,29.51,10.0,SSE,5.8,-,N/A,,Mostly Cloudy,160,2011-10-14 08:54:00
5:54 AM,66.0,64.0,93,29.52,10.0,SSE,5.8,-,N/A,,Mostly Cloudy,160,2011-10-14 09:54:00
6:25 AM,66.2,64.4,94,29.51,10.0,SE,5.8,-,N/A,,Mostly Cloudy,140,2011-10-14 10:25:00
6:32 AM,66.2,64.4,94,29.51,10.0,Variable,3.5,-,N/A,,Mostly Cloudy,0,2011-10-14 10:32:00
6:37 AM,66.2,64.4,94,29.50,10.0,Variable,4.6,-,N/A,,Mostly Cloudy,0,2011-10-14 10:37:00
6:54 AM,66.0,64.0,93,29.51,10.0,SSE,5.8,-,N/A,,Mostly Cloudy,160,2011-10-14 10:54:00
7:54 AM,66.0,64.0,93,29.50,10.0,Variable,3.5,-,0.00,Rain,Light Rain,0,2011-10-14 11:54:00
8:54 AM,66.2,64.4,94,29.49,3.0,South,5.8,-,N/A,Rain,Light Rain,190,2011-10-14 12:54:00
8:58 AM,66.2,64.4,94,29.50,2.0,South,5.8,-,0.00,Rain,Rain,190,2011-10-14 12:58:00
9:04 AM,66.2,64.4,94,29.49,2.5,South,4.6,-,0.01,Rain,Light Rain,190,2011-10-14 13:04:00
9:17 AM,66.2,62.6,88,29.48,4.0,South,5.8,-,0.02,Rain,Light Rain,180,2011-10-14 13:17:00
9:54 AM,66.9,63.0,87,29.46,10.0,South,5.8,-,0.03,,Mostly Cloudy,180,2011-10-14 13:54:00
10:04 AM,68.0,62.6,83,29.46,9.0,South,6.9,-,N/A,Thunderstorm,Thunderstorm,190,2011-10-14 14:04:00
10:15 AM,66.2,62.6,88,29.47,5.0,SW,9.2,-,0.00,Rain-Thunderstorm,Light Thunderstorms and Rain,220,2011-10-14 14:15:00
10:19 AM,66.2,62.6,88,29.47,2.5,SW,6.9,-,0.00,Rain-Thunderstorm,Light Thunderstorms and Rain,230,2011-10-14 14:19:00
10:21 AM,64.4,62.6,94,29.47,1.5,WSW,6.9,-,0.01,Rain-Thunderstorm,Thunderstorms and Rain,250,2011-10-14 14:21:00
10:28 AM,64.4,62.6,94,29.47,2.5,South,5.8,-,0.06,Rain-Thunderstorm,Thunderstorms and Rain,180,2011-10-14 14:28:00
10:34 AM,64.4,60.8,88,29.46,3.0,SSW,6.9,-,0.06,Rain-Thunderstorm,Thunderstorms and Rain,210,2011-10-14 14:34:00
10:41 AM,64.4,60.8,88,29.45,5.0,SSW,3.5,-,0.07,Rain,Light Rain,210,2011-10-14 14:41:00
10:54 AM,64.0,62.1,93,29.45,6.0,South,5.8,-,0.07,,Overcast,190,2011-10-14 14:54:00
11:54 AM,66.9,63.0,87,29.44,10.0,SW,8.1,19.6,N/A,,Mostly Cloudy,220,2011-10-14 15:54:00
11:58 AM,68.0,62.6,83,29.45,10.0,SW,10.4,-,N/A,,Mostly Cloudy,220,2011-10-14 15:58:00
12:08 PM,66.2,62.6,88,29.45,2.5,SW,16.1,28.8,0.00,Rain,Light Rain,220,2011-10-14 16:08:00
12:24 PM,64.4,60.8,88,29.46,3.0,WSW,18.4,28.8,0.06,Rain,Light Rain,250,2011-10-14 16:24:00
12:30 PM,62.6,57.2,82,29.46,5.0,West,12.7,23.0,0.07,Rain,Light Rain,260,2011-10-14 16:30:00
12:54 PM,64.0,59.0,84,29.45,10.0,WSW,10.4,-,0.07,,Mostly Cloudy,250,2011-10-14 16:54:00
1:54 PM,66.9,60.1,79,29.45,10.0,West,13.8,-,0.00,,Mostly Cloudy,260,2011-10-14 17:54:00
2:54 PM,68.0,55.0,63,29.45,10.0,West,13.8,31.1,0.00,,Mostly Cloudy,270,2011-10-14 18:54:00
3:54 PM,70.0,53.1,55,29.46,10.0,WSW,16.1,20.7,N/A,,Scattered Clouds,250,2011-10-14 19:54:00
4:54 PM,68.0,46.0,45,29.48,10.0,West,18.4,26.5,N/A,,Scattered Clouds,260,2011-10-14 20:54:00
5:54 PM,66.0,43.0,43,29.52,10.0,West,15.0,24.2,N/A,,Mostly Cloudy,260,2011-10-14 21:54:00
6:54 PM,62.1,43.0,50,29.55,10.0,West,11.5,18.4,N/A,,Scattered Clouds,260,2011-10-14 22:54:00
7:54 PM,63.0,39.9,43,29.60,10.0,West,18.4,28.8,N/A,,Partly Cloudy,270,2011-10-14 23:54:00
8:54 PM,61.0,39.9,46,29.62,10.0,West,18.4,24.2,N/A,,Partly Cloudy,270,2011-10-15 00:54:00
9:54 PM,59.0,41.0,51,29.64,10.0,West,10.4,-,N/A,,Partly Cloudy,260,2011-10-15 01:54:00
10:54 PM,59.0,42.1,53,29.65,10.0,WSW,12.7,-,N/A,,Clear,250,2011-10-15 02:54:00
11:54 PM,57.0,42.1,57,29.68,10.0,SW,6.9,-,N/A,,Partly Cloudy,230,2011-10-15 03:54:00